Tropical Cyclones
[Index]
Main Index Home Page Stock Weather Photos Extreme Storms Discussion Storm News and Storm Chasing Reports Tropical Cyclones / Hurricanes / Typhoons Weather Data and Links Wild Fires / Bushfires Weather Observation Techniques Weather Picture Catalogue Tornado Pictures and Reports Stock Video Footage and DVDs for sale
Season 2013-2014 Tropical Cyclone KOFI Track Map
Season 2013-2014 Summaries (Operational Data): [AU] [SIO] [SPAC] [SH]
<<- Previous TC | 2013-2014 Season | Next TC ->>

click for intensity scale information  Lat/long Grid: Show Hide

 Date Labels: Show Hide

Operational Tropical Cyclone Data : JTWC Advisories

Name: KOFI
Number: 1416

24 Feb 2014 21:00 UTC to 05 Mar 2014 18:00 UTC

    date/time    lat    long     hPa   cat  kts
2014-02-24 21   17.9   174.9    1002                     
2014-02-25 06   18.2   175.1    1002                     
2014-02-25 21   17.7   176.4    1000                     
2014-02-26 00   17.1   177.4    1003         25          
2014-02-26 06   18.8   178.6    1002         25          
2014-02-26 12   18.6   179.0    1002         25          
2014-02-26 18   18.2   179.0    1000         25          
2014-02-27 00   17.5   178.6    1000         25          
2014-02-27 06   16.9   178.4    1004         25          
2014-02-27 12   16.4   178.4    1004         25          
2014-02-27 18   16.1   178.7     999         25          
2014-02-28 00   15.8   179.6     998         30          
2014-02-28 06   16.5   179.5W    996    1    35          
2014-02-28 12   17.6   178.9W    996    1    35          
2014-02-28 18   18.6   178.1W    996    1    35          
2014-03-01 00   19.8   177.2W    993    1    40          
2014-03-01 06   20.7   176.7W    993    1    40          
2014-03-01 12   21.5   176.0W    989    1    45          
2014-03-01 18   22.3   175.5W    989    1    45          
2014-03-02 00   23.0   175.0W    989    1    45          
2014-03-02 06   23.5   174.2W    989    1    45          
2014-03-02 12   24.3   173.5W    985    2    50          
2014-03-02 18   25.3   172.4W    985    2    50          
2014-03-03 00   26.5   171.0W    985    2    50          
2014-03-03 06   27.6   169.1W    989    1    45          
2014-03-03 12   29.2   167.1W    989    1    45          
2014-03-03 18   30.3   165.3W    993    1    40          
2014-03-04 00   31.7   163.0W    993    1    35          
2014-03-04 12   35.0   160.0W    989    1    45          
2014-03-04 18   38.0   159.0W    991    1    40          
2014-03-05 00   41.0   158.0W    990    1    40          
2014-03-05 06   44.0   156.0W    991    1    40          
2014-03-05 12   47.0   154.0W    991    1    35          
2014-03-05 18   51.0   150.0W    994    1    35          
Winds are 10-min average.

Tropical cyclone tracks developed by Michael Bath using operational warnings and advisories and Google Maps.


[Australian Severe Weather index] [Copyright Notice] [Email Contacts] [Search This Site] [Privacy Policy]
Document: tropical_cyclone_kofi.htm Updated: 2 May 2017